KBQK/BQK METAR and TAF weather

Enter ICAO airport designator
Station Type Date Time Source
KBQK METAR 2021/01/17 19:55 UTC NOAA

KBQK 171955Z AUTO 28008KT 230V310 10SM CLR 14/M02 A2997 RMK AO2 T01401021


Station Type Date Time Source
KBQK Decoded METAR 2021/01/17 19:55 UTC NOAA

Brunswick / Glynco, GA, United States (KBQK) 31-15N 081-28W
Jan 17, 2021 - 02:55 PM EST / 2021.01.17 1955 UTC
Wind: from the W (280 degrees) at 9 MPH (8 KT) (direction variable):0
Visibility: 10 mile(s):0
Sky conditions: clear
Temperature: 57.2 F (14.0 C)
Dew Point: 28.2 F (-2.1 C)
Relative Humidity: 32%
Pressure (altimeter): 29.97 in. Hg (1014 hPa)
ob: KBQK 171955Z AUTO 28008KT 230V310 10SM CLR 14/M02 A2997 RMK AO2 T01401021
cycle: 20

Station Type Date Time Source
KBQK TAF UTC NOAA

Error!

Example: see airport list